createdAt,value
2023-04-28T00:00:33.236Z,0.82
2023-04-28T00:03:18.135Z,0.79
2023-04-28T00:05:47.832Z,0.76
2023-04-28T00:08:15.855Z,0.73
2023-04-28T00:10:43.829Z,0.69
2023-04-28T00:13:11.796Z,0.65
2023-04-28T00:15:40.478Z,0.62
2023-04-28T00:18:08.687Z,0.58
2023-04-28T00:20:36.836Z,0.58
2023-04-28T00:23:04.913Z,0.55
2023-04-28T00:25:33.213Z,0.53
2023-04-28T00:28:01.890Z,0.49
2023-04-28T00:30:31.002Z,0.46
2023-04-28T00:32:59.038Z,0.44
2023-04-28T00:35:27.122Z,0.42
2023-04-28T00:37:55.246Z,0.40
2023-04-28T00:40:23.469Z,0.38
2023-04-28T00:42:51.671Z,0.35
2023-04-28T00:45:20.828Z,0.33
2023-04-28T00:47:48.885Z,0.31
2023-04-28T00:50:17.554Z,0.28
2023-04-28T00:52:45.798Z,0.26
2023-04-28T00:55:15.510Z,0.24
2023-04-28T00:57:43.503Z,0.21
2023-04-28T01:00:11.984Z,0.19
2023-04-28T01:02:40.176Z,0.16
2023-04-28T01:05:10.084Z,0.14
2023-04-28T01:07:39.239Z,0.12
2023-04-28T01:10:08.824Z,0.11
2023-04-28T01:12:37.066Z,0.09
2023-04-28T01:15:05.936Z,0.06
2023-04-28T01:17:34.469Z,0.04
2023-04-28T01:20:03.182Z,0.01
2023-04-28T01:22:31.137Z,-0.01
2023-04-28T01:25:00.358Z,-0.05
2023-04-28T01:27:28.666Z,-0.09
2023-04-28T01:29:58.648Z,-0.10
2023-04-28T01:32:26.952Z,-0.09
2023-04-28T01:34:54.969Z,-0.11
2023-04-28T01:37:22.969Z,-0.10
2023-04-28T01:39:51.033Z,-0.10
2023-04-28T01:42:19.833Z,-0.12
2023-04-28T01:44:47.912Z,-0.13
2023-04-28T01:47:16.110Z,-0.14
2023-04-28T01:49:44.099Z,-0.16
2023-04-28T01:52:12.104Z,-0.19
2023-04-28T01:54:39.976Z,-0.22
2023-04-28T01:57:08.326Z,-0.25
2023-04-28T01:59:37.048Z,-0.28
2023-04-28T02:02:06.666Z,-0.30
2023-04-28T02:04:34.869Z,-0.30
2023-04-28T02:07:02.773Z,-0.30
2023-04-28T02:09:30.871Z,-0.30
2023-04-28T02:12:00.376Z,-0.30
2023-04-28T02:14:29.880Z,-0.32
2023-04-28T02:16:59.191Z,-0.35
2023-04-28T02:19:27.650Z,-0.37
2023-04-28T02:21:55.931Z,-0.39
2023-04-28T02:24:23.964Z,-0.42
2023-04-28T02:26:51.971Z,-0.43
2023-04-28T02:29:20.620Z,-0.43
2023-04-28T02:31:48.858Z,-0.43
2023-04-28T02:34:17.144Z,-0.43
2023-04-28T02:36:46.548Z,-0.43
2023-04-28T02:39:14.487Z,-0.45
2023-04-28T02:41:43.019Z,-0.47
2023-04-28T02:44:11.308Z,-0.50
2023-04-28T02:46:39.356Z,-0.51
2023-04-28T02:49:07.816Z,-0.53
2023-04-28T02:51:36.107Z,-0.54
2023-04-28T02:54:04.745Z,-0.57
2023-04-28T02:56:33.772Z,-0.59
2023-04-28T02:59:02.156Z,-0.62
2023-04-28T03:01:30.166Z,-0.65
2023-04-28T03:03:59.070Z,-0.66
2023-04-28T03:06:28.503Z,-0.66
2023-04-28T03:08:56.465Z,-0.66
2023-04-28T03:11:24.486Z,-0.68
2023-04-28T03:13:53.324Z,-0.69
2023-04-28T03:16:21.465Z,-0.69
2023-04-28T03:18:49.769Z,-0.69
2023-04-28T03:21:17.639Z,-0.68
2023-04-28T03:23:46.015Z,-0.68
2023-04-28T03:26:14.170Z,-0.69
2023-04-28T03:28:43.479Z,-0.66
2023-04-28T03:31:11.644Z,-0.59
2023-04-28T03:33:39.641Z,-0.50
2023-04-28T03:36:08.235Z,-0.39
2023-04-28T03:38:36.219Z,-0.24
2023-04-28T03:41:04.505Z,-0.08
2023-04-28T03:43:33.749Z,0.08
2023-04-28T03:46:16.233Z,0.29
2023-04-28T03:48:46.313Z,0.45
2023-04-28T03:51:14.526Z,0.59
2023-04-28T03:53:42.888Z,0.71
2023-04-28T03:56:11.233Z,0.78
2023-04-28T03:58:41.170Z,0.87
2023-04-28T04:05:19.714Z,1.70
2023-04-28T04:07:48.604Z,1.92
2023-04-28T04:10:17.172Z,2.15
2023-04-28T04:12:45.698Z,2.39
2023-04-28T04:15:13.895Z,2.61
2023-04-28T04:17:43.171Z,2.84
2023-04-28T04:20:11.501Z,3.22
2023-04-28T04:22:39.679Z,3.84
2023-04-28T04:25:08.249Z,4.50
2023-04-28T04:27:36.484Z,5.03
2023-04-28T04:34:38.124Z,6.51
2023-04-28T04:37:06.742Z,7.50
2023-04-28T04:39:35.876Z,8.71
2023-04-28T04:42:16.757Z,10.06
2023-04-28T04:45:10.049Z,12.09
2023-04-28T04:47:38.385Z,13.73
2023-04-28T04:50:07.538Z,15.27
2023-04-28T04:52:35.751Z,16.72
2023-04-28T04:55:05.408Z,18.14
2023-04-28T04:57:34.294Z,19.36
2023-04-28T11:05:12.912Z,16.19
2023-04-28T11:07:41.728Z,16.36
2023-04-28T11:10:10.523Z,16.22
2023-04-28T11:13:17.278Z,16.05
2023-04-28T11:16:03.278Z,15.81
2023-04-28T11:18:55.380Z,15.75
2023-04-28T11:21:26.011Z,15.70
2023-04-28T11:23:54.576Z,15.96
2023-04-28T11:26:25.540Z,16.31
2023-04-28T11:28:56.270Z,16.29
2023-04-28T11:31:26.347Z,15.84
2023-04-28T11:33:59.580Z,15.50
2023-04-28T11:36:33.615Z,15.55
2023-04-28T11:39:07.920Z,15.70
2023-04-28T11:41:39.569Z,15.78
2023-04-28T11:44:14.320Z,15.82
2023-04-28T11:46:47.255Z,15.80
2023-04-28T11:49:15.143Z,15.80
2023-04-28T11:51:45.078Z,15.83
2023-04-28T11:54:14.962Z,15.66
2023-04-28T11:56:42.908Z,15.76
2023-04-28T11:59:13.258Z,15.93
2023-04-28T12:01:48.614Z,16.01
2023-04-28T12:04:37.973Z,16.10
2023-04-28T12:07:16.473Z,16.02
2023-04-28T12:10:05.594Z,15.85
2023-04-28T12:12:48.947Z,15.72
2023-04-28T12:15:21.676Z,15.57
2023-04-28T12:17:51.365Z,15.54
2023-04-28T12:20:40.800Z,15.59
2023-04-28T12:23:09.653Z,15.68
2023-04-28T12:25:44.619Z,15.73
2023-04-28T12:28:12.637Z,15.76
2023-04-28T12:30:44.039Z,15.83
2023-04-28T12:33:25.933Z,16.01
2023-04-28T12:35:56.050Z,16.10
2023-04-28T12:38:25.399Z,16.12
2023-04-28T12:40:54.042Z,16.11
2023-04-28T12:43:24.411Z,16.17
2023-04-28T12:45:54.399Z,16.01
2023-04-28T12:48:25.773Z,15.87
2023-04-28T12:50:53.753Z,16.04
2023-04-28T12:53:22.542Z,16.21
2023-04-28T12:55:50.550Z,16.24
2023-04-28T12:58:18.561Z,15.97
2023-04-28T13:00:46.696Z,15.83
2023-04-28T13:03:16.120Z,15.60
2023-04-28T13:05:45.588Z,15.30
2023-04-28T13:08:14.151Z,15.23
2023-04-28T13:10:42.119Z,15.29
2023-04-28T13:13:10.215Z,15.36
2023-04-28T13:15:39.008Z,15.35
2023-04-28T13:18:07.306Z,15.34
2023-04-28T13:20:35.482Z,15.42
2023-04-28T13:23:03.611Z,15.47
2023-04-28T13:25:31.861Z,15.41
2023-04-28T13:27:59.762Z,15.34
2023-04-28T13:30:27.893Z,15.36
2023-04-28T13:32:57.624Z,15.29
2023-04-28T13:35:26.442Z,15.31
2023-04-28T13:37:56.308Z,15.35
2023-04-28T13:40:24.480Z,15.43
2023-04-28T13:42:52.381Z,15.44
2023-04-28T13:45:22.022Z,15.36
2023-04-28T13:47:51.165Z,15.14
2023-04-28T13:50:19.452Z,15.09
2023-04-28T13:52:47.774Z,14.99
2023-04-28T13:55:15.893Z,14.87
2023-04-28T13:57:43.818Z,14.92
2023-04-28T14:00:12.685Z,15.00
2023-04-28T14:02:41.680Z,15.07
2023-04-28T14:05:10.015Z,14.94
2023-04-28T14:07:38.258Z,14.81
2023-04-28T14:10:07.008Z,14.67
2023-04-28T14:12:35.180Z,14.61
2023-04-28T14:15:03.285Z,14.51
2023-04-28T14:17:32.935Z,14.54
2023-04-28T14:20:01.877Z,14.58
2023-04-28T14:22:30.174Z,14.69
2023-04-28T14:24:58.879Z,14.82
2023-04-28T14:27:27.767Z,14.91
2023-04-28T14:29:55.934Z,15.04
2023-04-28T14:32:23.918Z,15.17
2023-04-28T14:34:51.974Z,15.21
2023-04-28T14:37:20.421Z,15.25
2023-04-28T14:39:49.569Z,15.33
2023-04-28T14:42:17.614Z,15.41
2023-04-28T14:44:46.456Z,15.41
2023-04-28T14:47:14.642Z,15.43
2023-04-28T14:49:42.596Z,15.44
2023-04-28T14:52:10.812Z,15.48
2023-04-28T14:54:39.393Z,15.51
2023-04-28T14:57:07.554Z,15.47
2023-04-28T14:59:36.020Z,15.39
2023-04-28T15:02:04.269Z,15.37
2023-04-28T15:04:32.749Z,15.38
2023-04-28T15:07:01.827Z,15.38
2023-04-28T15:09:31.070Z,15.39
2023-04-28T15:11:59.076Z,15.41
2023-04-28T15:14:26.954Z,15.41
2023-04-28T15:16:55.197Z,15.27
2023-04-28T15:19:24.366Z,15.15
2023-04-28T15:21:52.773Z,15.01
2023-04-28T15:24:23.481Z,14.96
2023-04-28T15:26:51.582Z,14.99
2023-04-28T15:29:19.558Z,15.03
2023-04-28T15:31:48.386Z,15.03
2023-04-28T15:34:16.422Z,14.97
2023-04-28T15:36:45.896Z,14.90
2023-04-28T15:39:16.053Z,14.90
2023-04-28T15:41:43.906Z,14.93
2023-04-28T15:44:11.791Z,14.91
2023-04-28T15:46:40.238Z,14.77
2023-04-28T15:49:08.845Z,14.65
2023-04-28T15:51:37.079Z,14.53
2023-04-28T15:54:05.237Z,14.45
2023-04-28T15:56:34.237Z,14.46
2023-04-28T15:59:02.665Z,14.50
2023-04-28T16:01:30.611Z,14.52
2023-04-28T16:03:58.844Z,14.51
2023-04-28T16:06:26.985Z,14.46
2023-04-28T16:08:57.019Z,14.32
2023-04-28T16:11:25.279Z,14.19
2023-04-28T16:13:53.451Z,14.07
2023-04-28T16:16:23.377Z,13.95
2023-04-28T16:18:51.492Z,13.87
2023-04-28T16:21:19.517Z,13.84
2023-04-28T16:23:50.920Z,13.82
2023-04-28T16:26:19.339Z,13.77
2023-04-28T16:28:47.757Z,13.71
2023-04-28T16:31:16.378Z,13.64
2023-04-28T16:33:44.376Z,13.56
2023-04-28T16:36:12.294Z,13.45
2023-04-28T16:38:41.099Z,13.35
2023-04-28T16:41:08.992Z,13.27
2023-04-28T16:43:38.312Z,13.21
2023-04-28T16:46:07.670Z,13.17
2023-04-28T16:48:35.901Z,13.09
2023-04-28T16:51:08.174Z,13.01
2023-04-28T16:53:36.598Z,12.93
2023-04-28T16:56:04.941Z,12.84
2023-04-28T16:58:33.152Z,12.78
2023-04-28T17:01:01.331Z,12.71
2023-04-28T17:03:29.495Z,12.63
2023-04-28T17:05:59.342Z,12.56
2023-04-28T17:08:28.099Z,12.50
2023-04-28T17:10:56.309Z,12.44
2023-04-28T17:13:24.415Z,12.37
2023-04-28T17:15:57.492Z,12.31
2023-04-28T17:18:26.658Z,12.25
2023-04-28T17:20:56.753Z,12.20
2023-04-28T17:23:25.077Z,12.15
2023-04-28T17:25:53.054Z,12.09
2023-04-28T17:28:21.332Z,12.03
2023-04-28T17:30:50.467Z,11.95
2023-04-28T17:33:19.499Z,11.87
2023-04-28T17:35:47.499Z,11.77
2023-04-28T17:38:16.354Z,11.69
2023-04-28T17:40:48.579Z,11.61
2023-04-28T17:43:17.017Z,11.54
2023-04-28T17:45:45.070Z,11.46
2023-04-28T17:48:13.858Z,11.38
2023-04-28T17:50:41.968Z,11.30
2023-04-28T17:53:10.631Z,11.23
2023-04-28T17:55:39.908Z,11.15
2023-04-28T17:58:08.313Z,11.07
2023-04-28T18:00:36.559Z,10.99
2023-04-28T18:03:04.625Z,10.88
2023-04-28T18:05:35.399Z,10.78
2023-04-28T18:08:04.283Z,10.67
2023-04-28T18:10:32.655Z,10.58
2023-04-28T18:13:02.010Z,10.48
2023-04-28T18:15:30.859Z,10.38
2023-04-28T18:17:58.947Z,10.28
2023-04-28T18:20:26.950Z,10.18
2023-04-28T18:22:56.625Z,10.08
2023-04-28T18:25:24.659Z,10.00
2023-04-28T18:27:53.973Z,9.92
2023-04-28T18:30:22.173Z,9.85
2023-04-28T18:32:51.002Z,9.76
2023-04-28T18:35:19.657Z,9.67
2023-04-28T18:37:47.814Z,9.58
2023-04-28T18:40:16.324Z,9.51
2023-04-28T18:42:44.272Z,9.45
2023-04-28T18:47:41.049Z,9.33
2023-04-28T18:50:09.503Z,9.26
2023-04-28T18:52:38.358Z,9.20
2023-04-28T18:55:06.713Z,9.15
2023-04-28T18:57:34.768Z,9.10
2023-04-28T19:04:42.120Z,8.93
2023-04-28T19:07:11.463Z,8.89
2023-04-28T19:09:39.713Z,8.82
2023-04-28T19:12:08.620Z,8.76
2023-04-28T19:14:37.178Z,8.71
2023-04-28T19:17:05.394Z,8.66
2023-04-28T19:19:34.168Z,8.61
2023-04-28T19:22:03.328Z,8.56
2023-04-28T19:24:31.551Z,8.52
2023-04-28T19:27:01.683Z,8.48
2023-04-28T19:29:29.815Z,8.44
2023-04-28T19:31:58.080Z,8.40
2023-04-28T19:34:27.001Z,8.37
2023-04-28T19:36:56.125Z,8.32
2023-04-28T19:39:24.335Z,8.27
2023-04-28T19:41:54.587Z,8.22
2023-04-28T19:44:23.116Z,8.16
2023-04-28T19:46:51.446Z,8.11
2023-04-28T19:49:19.641Z,8.05
2023-04-28T19:51:47.786Z,7.99
2023-04-28T19:54:16.838Z,7.95
2023-04-28T19:56:45.028Z,7.89
2023-04-28T19:59:13.120Z,7.83
2023-04-28T20:01:43.737Z,7.78
2023-04-28T20:04:15.713Z,7.72
2023-04-28T20:06:44.272Z,7.67
2023-04-28T20:09:12.475Z,7.62
2023-04-28T20:11:41.500Z,7.57
2023-04-28T20:14:09.848Z,7.54
2023-04-28T20:16:38.081Z,7.50
2023-04-28T20:19:06.349Z,7.45
2023-04-28T20:21:35.330Z,7.42
2023-04-28T20:24:03.753Z,7.38
2023-04-28T20:26:31.928Z,7.38
2023-04-28T20:29:00.519Z,7.37
2023-04-28T20:31:28.614Z,7.35
2023-04-28T20:33:56.705Z,7.33
2023-04-28T20:36:25.441Z,7.31
2023-04-28T20:38:54.052Z,7.28
2023-04-28T20:41:22.185Z,7.26
2023-04-28T20:43:52.449Z,7.24
2023-04-28T20:46:22.055Z,7.22
2023-04-28T20:48:50.687Z,7.20
2023-04-28T20:51:20.062Z,7.18
2023-04-28T20:53:48.201Z,7.16
2023-04-28T20:56:16.392Z,7.13
2023-04-28T20:58:46.480Z,7.11
2023-04-28T21:04:06.841Z,7.06
2023-04-28T21:06:35.195Z,7.04
2023-04-28T21:09:03.235Z,7.02
2023-04-28T21:11:31.452Z,7.07
2023-04-28T21:14:00.063Z,7.15
2023-04-28T21:16:28.236Z,7.22
2023-04-28T21:18:56.783Z,7.28
2023-04-28T21:21:24.938Z,7.34
2023-04-28T21:23:53.245Z,7.37
2023-04-28T21:26:22.444Z,7.40
2023-04-28T21:28:51.007Z,7.42
2023-04-28T21:31:19.187Z,7.41
2023-04-28T21:33:47.488Z,7.38
2023-04-28T21:36:15.747Z,7.36
2023-04-28T21:38:44.119Z,7.30
2023-04-28T21:41:13.178Z,7.20
2023-04-28T21:43:41.240Z,7.08
2023-04-28T21:46:09.800Z,6.97
2023-04-28T21:48:38.641Z,6.89
2023-04-28T21:51:06.704Z,6.81
2023-04-28T21:53:34.833Z,6.73
2023-04-28T21:56:04.413Z,6.65
2023-04-28T21:58:57.746Z,6.58
2023-04-28T22:01:27.304Z,6.51
2023-04-28T22:03:56.340Z,6.45
2023-04-28T22:06:25.340Z,6.39
2023-04-28T22:08:54.059Z,6.34
2023-04-28T22:11:22.197Z,6.29
2023-04-28T22:13:50.392Z,6.25
2023-04-28T22:16:18.548Z,6.20
2023-04-28T22:18:46.867Z,6.16
2023-04-28T22:21:16.810Z,6.14
2023-04-28T22:23:45.057Z,6.10
2023-04-28T22:26:14.594Z,6.06
2023-04-28T22:28:42.918Z,6.03
2023-04-28T22:31:11.224Z,6.00
2023-04-28T22:33:39.513Z,5.98
2023-04-28T22:36:07.790Z,5.94
2023-04-28T22:38:35.836Z,5.91
2023-04-28T22:41:04.024Z,5.88
2023-04-28T22:43:32.577Z,5.86
2023-04-28T22:46:01.101Z,5.83
2023-04-28T22:48:30.365Z,5.80
2023-04-28T22:50:58.660Z,5.77
2023-04-28T22:53:26.701Z,5.74
2023-04-28T22:55:56.805Z,5.72
2023-04-28T22:58:25.191Z,5.70
2023-04-28T23:00:53.475Z,5.67
2023-04-28T23:03:21.733Z,5.65
2023-04-28T23:05:49.923Z,5.65
2023-04-28T23:08:17.962Z,5.68
2023-04-28T23:10:46.429Z,5.74
2023-04-28T23:13:14.656Z,5.73
2023-04-28T23:15:43.048Z,5.71
2023-04-28T23:18:11.222Z,5.69
2023-04-28T23:20:39.581Z,5.65
2023-04-28T23:23:07.624Z,5.63
2023-04-28T23:25:36.497Z,5.60
2023-04-28T23:28:04.750Z,5.56
2023-04-28T23:30:32.882Z,5.53
2023-04-28T23:33:01.237Z,5.52
2023-04-28T23:35:29.539Z,5.51
2023-04-28T23:37:57.703Z,5.52
2023-04-28T23:40:26.957Z,5.51
2023-04-28T23:42:55.042Z,5.48
2023-04-28T23:45:23.229Z,5.46
2023-04-28T23:47:51.507Z,5.44
2023-04-28T23:50:19.835Z,5.47
2023-04-28T23:53:12.797Z,5.55
2023-04-28T23:55:40.817Z,5.63
2023-04-28T23:58:09.278Z,5.71
